createdAt,value
2024-02-03T00:00:25.960Z,100766.59
2024-02-03T00:02:52.792Z,100755.34
2024-02-03T00:05:19.554Z,100762.56
2024-02-03T00:07:46.373Z,100743.78
2024-02-03T00:10:13.216Z,100740.75
2024-02-03T00:12:46.017Z,100734.41
2024-02-03T00:15:13.000Z,100733.88
2024-02-03T00:17:41.065Z,100736.75
2024-02-03T00:20:09.359Z,100735.75
2024-02-03T00:22:36.484Z,100743.13
2024-02-03T00:25:03.598Z,100738.41
2024-02-03T00:27:30.530Z,100731.03
2024-02-03T00:29:57.304Z,100720.97
2024-02-03T00:32:24.209Z,100733.56
2024-02-03T00:34:51.482Z,100729.53
2024-02-03T00:37:18.360Z,100741.09
2024-02-03T00:39:45.322Z,100733.91
2024-02-03T00:42:12.380Z,100729.69
2024-02-03T00:44:40.088Z,100740.09
2024-02-03T00:47:07.581Z,100728.03
2024-02-03T00:49:34.725Z,100723.66
2024-02-03T00:52:02.086Z,100725.16
2024-02-03T00:54:29.020Z,100726.00
2024-02-03T00:56:55.997Z,100723.66
2024-02-03T00:59:22.822Z,100714.78
2024-02-03T01:01:50.256Z,100711.25
2024-02-03T01:04:17.250Z,100720.81
2024-02-03T01:06:44.187Z,100729.19
2024-02-03T01:09:11.060Z,100725.50
2024-02-03T01:11:38.060Z,100739.44
2024-02-03T01:14:04.987Z,100733.22
2024-02-03T01:16:31.852Z,100743.78
2024-02-03T01:18:58.663Z,100735.75
2024-02-03T01:21:25.569Z,100740.09
2024-02-03T01:23:52.453Z,100738.06
2024-02-03T01:26:19.301Z,100738.06
2024-02-03T01:28:46.056Z,100748.66
2024-02-03T01:31:13.178Z,100751.66
2024-02-03T01:33:40.293Z,100756.19
2024-02-03T01:36:07.450Z,100753.16
2024-02-03T01:38:34.339Z,100759.53
2024-02-03T01:41:01.117Z,100753.66
2024-02-03T01:43:27.967Z,100765.91
2024-02-03T01:45:54.824Z,100769.94
2024-02-03T01:48:22.147Z,100763.56
2024-02-03T01:50:51.352Z,100774.97
2024-02-03T01:53:20.258Z,100767.94
2024-02-03T01:55:49.690Z,100762.22
2024-02-03T01:58:17.657Z,100750.31
2024-02-03T02:00:44.581Z,100750.81
2024-02-03T02:03:11.648Z,100762.88
2024-02-03T02:05:38.618Z,100752.81
2024-02-03T02:08:05.865Z,100747.63
2024-02-03T02:10:32.727Z,100740.44
2024-02-03T02:12:59.581Z,100735.06
2024-02-03T02:15:26.638Z,100747.44
2024-02-03T02:18:03.361Z,100750.00
2024-02-03T02:20:30.250Z,100745.63
2024-02-03T02:22:57.395Z,100743.41
2024-02-03T02:25:24.313Z,100743.78
2024-02-03T02:27:54.206Z,100748.44
2024-02-03T02:30:21.755Z,100742.03
2024-02-03T02:32:48.825Z,100739.38
2024-02-03T02:35:15.851Z,100734.69
2024-02-03T02:37:42.674Z,100736.38
2024-02-03T02:40:10.288Z,100735.00
2024-02-03T02:42:37.517Z,100728.31
2024-02-03T02:45:04.633Z,100729.81
2024-02-03T02:47:32.022Z,100735.34
2024-02-03T02:49:58.981Z,100745.91
2024-02-03T02:52:25.952Z,100739.06
2024-02-03T02:54:53.252Z,100739.56
2024-02-03T02:57:20.250Z,100741.03
2024-02-03T02:59:47.069Z,100745.25
2024-02-03T03:02:14.076Z,100759.81
2024-02-03T03:04:41.017Z,100746.91
2024-02-03T03:07:07.875Z,100745.06
2024-02-03T03:09:34.665Z,100739.34
2024-02-03T03:12:01.519Z,100744.66
2024-02-03T03:14:28.323Z,100737.31
2024-02-03T03:16:55.634Z,100741.31
2024-02-03T03:19:22.496Z,100737.31
2024-02-03T03:21:49.445Z,100741.31
2024-02-03T03:24:16.272Z,100741.97
2024-02-03T03:26:46.262Z,100746.66
2024-02-03T03:29:16.353Z,100732.94
2024-02-03T03:31:44.105Z,100748.66
2024-02-03T03:34:11.550Z,100746.66
2024-02-03T03:36:38.921Z,100745.97
2024-02-03T03:39:05.917Z,100754.69
2024-02-03T03:41:32.772Z,100758.84
2024-02-03T03:43:59.574Z,100756.34
2024-02-03T03:46:26.469Z,100752.47
2024-02-03T03:48:53.395Z,100758.81
2024-02-03T03:51:20.323Z,100746.81
2024-02-03T03:53:47.157Z,100759.03
2024-02-03T03:56:14.099Z,100769.00
2024-02-03T03:58:40.911Z,100756.63
2024-02-03T04:01:10.976Z,100756.63
2024-02-03T04:03:37.895Z,100751.91
2024-02-03T04:06:05.699Z,100754.59
2024-02-03T04:08:32.654Z,100742.53
2024-02-03T04:10:59.430Z,100766.31
2024-02-03T04:13:26.279Z,100746.56
2024-02-03T04:15:54.805Z,100749.56
2024-02-03T04:18:21.987Z,100742.69
2024-02-03T04:20:48.946Z,100743.53
2024-02-03T04:23:15.726Z,100754.88
2024-02-03T04:25:42.562Z,100749.00
2024-02-03T04:28:09.381Z,100756.19
2024-02-03T04:30:36.241Z,100760.22
2024-02-03T04:33:03.345Z,100762.75
2024-02-03T04:35:32.414Z,100756.03
2024-02-03T04:38:04.092Z,100755.56
2024-02-03T04:40:31.149Z,100746.19
2024-02-03T04:42:58.035Z,100743.22
2024-02-03T04:45:24.859Z,100742.69
2024-02-03T04:47:51.920Z,100737.84
2024-02-03T04:50:18.773Z,100730.50
2024-02-03T04:52:45.596Z,100733.19
2024-02-03T04:55:12.378Z,100734.13
2024-02-03T04:57:39.305Z,100725.78
2024-02-03T05:00:07.359Z,100728.66
2024-02-03T05:02:34.487Z,100722.78
2024-02-03T05:05:01.383Z,100725.13
2024-02-03T05:07:28.291Z,100724.78
2024-02-03T05:09:55.224Z,100739.69
2024-02-03T05:12:22.095Z,100742.53
2024-02-03T05:14:48.915Z,100739.84
2024-02-03T05:17:15.770Z,100731.81
2024-02-03T05:19:42.626Z,100738.19
2024-02-03T05:22:09.521Z,100740.22
2024-02-03T05:24:36.607Z,100744.22
2024-02-03T05:27:03.740Z,100741.69
2024-02-03T05:29:30.549Z,100742.53
2024-02-03T05:31:57.540Z,100743.22
2024-02-03T05:34:24.572Z,100744.22
2024-02-03T05:36:51.514Z,100750.09
2024-02-03T05:39:18.414Z,100749.56
2024-02-03T05:41:45.298Z,100750.56
2024-02-03T05:44:12.138Z,100749.56
2024-02-03T05:46:38.998Z,100744.56
2024-02-03T05:49:06.134Z,100743.72
2024-02-03T05:51:33.110Z,100750.94
2024-02-03T05:53:59.988Z,100760.97
2024-02-03T05:56:26.979Z,100751.91
2024-02-03T05:59:07.950Z,100752.59
2024-02-03T06:01:40.635Z,100748.88
2024-02-03T06:04:09.585Z,100736.69
2024-02-03T06:06:36.774Z,100743.72
2024-02-03T06:09:04.602Z,100742.22
2024-02-03T06:11:34.314Z,100745.56
2024-02-03T06:14:01.144Z,100743.88
2024-02-03T06:16:27.917Z,100751.56
2024-02-03T06:18:54.808Z,100741.53
2024-02-03T06:21:21.665Z,100740.53
2024-02-03T06:23:48.524Z,100747.56
2024-02-03T06:26:15.360Z,100750.25
2024-02-03T06:28:42.140Z,100750.56
2024-02-03T06:31:08.941Z,100750.03
2024-02-03T06:33:35.871Z,100753.75
2024-02-03T06:36:02.849Z,100757.22
2024-02-03T06:38:30.116Z,100760.22
2024-02-03T06:40:57.516Z,100768.09
2024-02-03T06:43:24.378Z,100756.91
2024-02-03T06:45:51.238Z,100764.94
2024-02-03T06:48:18.316Z,100761.78
2024-02-03T06:50:45.261Z,100759.06
2024-02-03T06:53:12.188Z,100759.59
2024-02-03T06:55:39.031Z,100756.63
2024-02-03T06:58:05.869Z,100750.25
2024-02-03T07:00:32.847Z,100742.53
2024-02-03T07:02:59.671Z,100754.72
2024-02-03T07:05:26.655Z,100750.03
2024-02-03T07:07:54.681Z,100750.25
2024-02-03T07:10:21.610Z,100750.56
2024-02-03T07:12:48.684Z,100751.91
2024-02-03T07:15:15.682Z,100741.69
2024-02-03T07:17:42.549Z,100732.19
2024-02-03T07:20:10.548Z,100725.19
2024-02-03T07:22:37.535Z,100736.94
2024-02-03T07:25:05.363Z,100720.88
2024-02-03T07:27:32.275Z,100731.94
2024-02-03T07:29:59.226Z,100724.59
2024-02-03T07:32:26.173Z,100727.97
2024-02-03T07:34:53.199Z,100730.81
2024-02-03T07:37:20.109Z,100728.97
2024-02-03T07:39:46.985Z,100725.63
2024-02-03T07:42:13.933Z,100721.97
2024-02-03T07:44:40.781Z,100740.56
2024-02-03T07:47:07.595Z,100732.66
2024-02-03T07:49:34.444Z,100723.13
2024-02-03T07:52:02.938Z,100729.34
2024-02-03T07:54:31.259Z,100724.66
2024-02-03T07:56:58.129Z,100719.63
2024-02-03T07:59:24.979Z,100716.97
2024-02-03T08:01:51.847Z,100722.31
2024-02-03T08:04:18.797Z,100715.59
2024-02-03T08:06:45.819Z,100720.47
2024-02-03T08:09:12.691Z,100713.59
2024-02-03T08:11:39.570Z,100719.31
2024-02-03T08:14:06.351Z,100719.13
2024-02-03T08:16:33.122Z,100726.16
2024-02-03T08:18:59.974Z,100715.97
2024-02-03T08:21:26.861Z,100709.22
2024-02-03T08:23:54.772Z,100713.13
2024-02-03T08:26:21.568Z,100709.22
2024-02-03T08:28:48.354Z,100712.72
2024-02-03T08:31:15.258Z,100716.25
2024-02-03T08:33:42.182Z,100720.97
2024-02-03T08:36:10.015Z,100715.03
2024-02-03T08:38:37.959Z,100711.00
2024-02-03T08:41:05.526Z,100699.81
2024-02-03T08:43:32.354Z,100704.16
2024-02-03T08:45:59.173Z,100706.03
2024-02-03T08:48:26.155Z,100703.13
2024-02-03T08:50:53.108Z,100711.81
2024-02-03T08:53:20.037Z,100718.88
2024-02-03T08:55:47.924Z,100717.09
2024-02-03T08:58:14.682Z,100724.97
2024-02-03T09:00:41.667Z,100721.44
2024-02-03T09:03:08.583Z,100710.81
2024-02-03T09:05:35.507Z,100707.81
2024-02-03T09:08:02.409Z,100709.47
2024-02-03T09:10:29.239Z,100704.09
2024-02-03T09:12:56.021Z,100708.78
2024-02-03T09:15:22.938Z,100701.75
2024-02-03T09:17:51.770Z,100704.44
2024-02-03T09:20:18.803Z,100697.03
2024-02-03T09:22:45.682Z,100686.63
2024-02-03T09:25:13.734Z,100696.34
2024-02-03T09:27:41.170Z,100692.34
2024-02-03T09:30:08.879Z,100695.84
2024-02-03T09:32:35.957Z,100694.00
2024-02-03T09:35:03.680Z,100689.63
2024-02-03T09:40:01.220Z,100708.13
2024-02-03T09:42:28.479Z,100717.88
2024-02-03T09:44:55.541Z,100708.00
2024-02-03T09:47:22.362Z,100703.22
2024-02-03T09:49:49.882Z,100711.25
2024-02-03T09:52:17.888Z,100713.03
2024-02-03T09:54:47.268Z,100714.78
2024-02-03T09:57:15.060Z,100716.56
2024-02-03T09:59:42.656Z,100706.53
2024-02-03T10:02:09.499Z,100709.50
2024-02-03T10:04:40.681Z,100711.69
2024-02-03T10:07:08.189Z,100706.69
2024-02-03T10:12:05.430Z,100683.56
2024-02-03T10:14:32.205Z,100705.91
2024-02-03T10:16:59.101Z,100707.06
2024-02-03T10:19:26.003Z,100709.38
2024-02-03T10:21:54.646Z,100709.56
2024-02-03T10:24:27.814Z,100718.50
2024-02-03T10:27:05.681Z,100710.81
2024-02-03T10:29:33.881Z,100718.44
2024-02-03T10:32:01.194Z,100707.91
2024-02-03T10:34:28.187Z,100713.44
2024-02-03T10:36:55.188Z,100718.13
2024-02-03T10:39:22.240Z,100719.00
2024-02-03T10:41:50.802Z,100723.63
2024-02-03T10:44:23.830Z,100726.31
2024-02-03T10:46:54.113Z,100715.28
2024-02-03T10:49:32.827Z,100713.31
2024-02-03T10:52:06.397Z,100715.91
2024-02-03T10:54:34.707Z,100709.16
2024-02-03T10:57:05.345Z,100716.00
2024-02-03T10:59:33.028Z,100733.56
2024-02-03T11:01:59.901Z,100721.00
2024-02-03T11:04:26.995Z,100729.41
2024-02-03T11:06:59.631Z,100729.63
2024-02-03T11:09:31.128Z,100724.63
2024-02-03T11:11:58.676Z,100722.59
2024-02-03T11:14:28.722Z,100730.94
2024-02-03T11:17:02.374Z,100736.13
2024-02-03T11:19:31.690Z,100728.09
2024-02-03T11:22:00.047Z,100729.53
2024-02-03T11:24:27.725Z,100734.16
2024-02-03T11:27:08.800Z,100733.72
2024-02-03T11:29:36.773Z,100738.75
2024-02-03T11:32:05.905Z,100737.94
2024-02-03T11:34:34.448Z,100733.13
2024-02-03T11:37:01.823Z,100745.31
2024-02-03T11:39:33.177Z,100734.41
2024-02-03T11:42:00.176Z,100730.41
2024-02-03T11:44:35.972Z,100723.00
2024-02-03T11:47:02.801Z,100715.06
2024-02-03T11:49:29.697Z,100720.19
2024-02-03T11:52:04.115Z,100715.63
2024-02-03T11:54:31.076Z,100710.06
2024-02-03T11:56:57.917Z,100698.59
2024-02-03T11:59:29.357Z,100709.66
2024-02-03T12:01:59.975Z,100712.88
2024-02-03T12:04:28.355Z,100707.31
2024-02-03T12:06:57.466Z,100706.31
2024-02-03T12:09:24.964Z,100694.09
2024-02-03T12:11:54.155Z,100709.03
2024-02-03T12:14:22.412Z,100709.44
2024-02-03T12:16:52.714Z,100704.81
2024-02-03T12:19:20.697Z,100695.59
2024-02-03T12:21:47.753Z,100693.25
2024-02-03T12:24:14.667Z,100687.69
2024-02-03T12:26:42.434Z,100687.56
2024-02-03T12:29:12.544Z,100692.09
2024-02-03T12:31:39.572Z,100684.16
2024-02-03T12:34:06.650Z,100679.91
2024-02-03T12:36:33.676Z,100677.09
2024-02-03T12:39:00.847Z,100677.41
2024-02-03T12:41:27.827Z,100675.19
2024-02-03T12:43:54.885Z,100667.63
2024-02-03T12:46:22.008Z,100677.47
2024-02-03T12:48:49.242Z,100679.84
2024-02-03T12:51:18.362Z,100671.13
2024-02-03T12:53:45.381Z,100669.84
2024-02-03T12:56:13.384Z,100669.19
2024-02-03T12:58:40.246Z,100673.81
2024-02-03T13:01:07.137Z,100661.13
2024-02-03T13:03:34.447Z,100659.84
2024-02-03T13:06:01.817Z,100656.97
2024-02-03T13:08:28.761Z,100664.34
2024-02-03T13:10:55.706Z,100659.53
2024-02-03T13:13:22.619Z,100659.72
2024-02-03T13:15:49.553Z,100641.38
2024-02-03T13:18:16.975Z,100649.44
2024-02-03T13:20:43.906Z,100650.53
2024-02-03T13:23:10.915Z,100646.66
2024-02-03T13:25:37.716Z,100640.34
2024-02-03T13:28:05.231Z,100651.59
2024-02-03T13:30:32.237Z,100643.84
2024-02-03T13:32:59.179Z,100647.72
2024-02-03T13:35:27.708Z,100658.69
2024-02-03T13:37:54.621Z,100644.94
2024-02-03T13:40:21.396Z,100661.88
2024-02-03T13:42:54.943Z,100656.84
2024-02-03T13:45:21.981Z,100653.66
2024-02-03T13:47:51.538Z,100663.53
2024-02-03T13:50:20.178Z,100651.72
2024-02-03T13:52:47.574Z,100639.16
2024-02-03T13:55:14.953Z,100645.38
2024-02-03T13:57:42.347Z,100647.72
2024-02-03T14:00:12.108Z,100653.63
2024-02-03T14:02:39.489Z,100649.09
2024-02-03T14:05:06.756Z,100633.59
2024-02-03T14:07:34.008Z,100643.16
2024-02-03T14:10:01.751Z,100637.25
2024-02-03T14:12:29.275Z,100639.78
2024-02-03T14:14:56.181Z,100644.66
2024-02-03T14:17:23.072Z,100647.53
2024-02-03T14:19:50.057Z,100640.03
2024-02-03T14:22:17.238Z,100638.03
2024-02-03T14:24:44.188Z,100633.97
2024-02-03T14:27:11.248Z,100648.09
2024-02-03T14:29:38.453Z,100628.63
2024-02-03T14:32:06.214Z,100630.31
2024-02-03T14:34:33.542Z,100616.09
2024-02-03T14:37:00.962Z,100617.28
2024-02-03T14:39:29.213Z,100608.28
2024-02-03T14:41:57.041Z,100612.47
2024-02-03T14:44:25.244Z,100600.34
2024-02-03T14:46:52.215Z,100615.81
2024-02-03T14:49:20.756Z,100614.09
2024-02-03T14:51:47.772Z,100611.69
2024-02-03T14:54:14.948Z,100611.41
2024-02-03T14:56:42.005Z,100612.06
2024-02-03T14:59:09.090Z,100613.38
2024-02-03T15:01:35.974Z,100615.75
2024-02-03T15:04:04.423Z,100610.19
2024-02-03T15:06:31.507Z,100614.78
2024-02-03T15:08:58.911Z,100606.59
2024-02-03T15:11:26.188Z,100596.50
2024-02-03T15:13:53.528Z,100603.38
2024-02-03T15:16:21.506Z,100597.94
2024-02-03T15:18:49.618Z,100599.81
2024-02-03T15:21:16.902Z,100589.72
2024-02-03T15:23:43.740Z,100590.06
2024-02-03T15:26:10.701Z,100596.28
2024-02-03T15:28:37.490Z,100598.63
2024-02-03T15:31:06.530Z,100606.78
2024-02-03T15:33:37.527Z,100590.13
2024-02-03T15:36:06.393Z,100589.72
2024-02-03T15:38:33.233Z,100590.59
2024-02-03T15:41:00.600Z,100592.44
2024-02-03T15:43:27.663Z,100594.44
2024-02-03T15:45:54.635Z,100594.47
2024-02-03T15:48:22.429Z,100594.66
2024-02-03T15:50:49.339Z,100590.63
2024-02-03T15:53:16.155Z,100598.84
2024-02-03T15:55:42.983Z,100603.72
2024-02-03T15:58:09.910Z,100599.00
2024-02-03T16:00:36.950Z,100617.13
2024-02-03T16:03:04.615Z,100603.25
2024-02-03T16:05:31.496Z,100610.47
2024-02-03T16:07:58.327Z,100597.47
2024-02-03T16:10:25.287Z,100597.19
2024-02-03T16:12:52.217Z,100598.00
2024-02-03T16:15:19.867Z,100591.25
2024-02-03T16:17:46.995Z,100596.16
2024-02-03T16:20:16.122Z,100592.31
2024-02-03T16:22:45.788Z,100592.31
2024-02-03T16:25:13.145Z,100584.25
2024-02-03T16:27:42.799Z,100615.16
2024-02-03T16:30:12.169Z,100603.41
2024-02-03T16:32:39.087Z,100603.28
2024-02-03T16:35:06.416Z,100617.38
2024-02-03T16:37:33.560Z,100613.66
2024-02-03T16:40:00.549Z,100614.41
2024-02-03T16:42:27.444Z,100614.69
2024-02-03T16:44:57.080Z,100612.50
2024-02-03T16:47:24.383Z,100611.28
2024-02-03T16:49:51.267Z,100609.13
2024-02-03T16:52:18.221Z,100612.66
2024-02-03T16:54:45.197Z,100627.78
2024-02-03T16:57:12.205Z,100615.34
2024-02-03T16:59:39.145Z,100618.34
2024-02-03T17:02:06.284Z,100603.00
2024-02-03T17:04:33.259Z,100600.06
2024-02-03T17:07:00.437Z,100606.13
2024-02-03T17:09:27.550Z,100585.19
2024-02-03T17:11:54.553Z,100600.66
2024-02-03T17:14:21.334Z,100596.97
2024-02-03T17:16:48.133Z,100610.31
2024-02-03T17:19:15.150Z,100608.03
2024-02-03T17:21:44.199Z,100612.91
2024-02-03T17:24:11.244Z,100612.00
2024-02-03T17:26:38.126Z,100613.31
2024-02-03T17:29:05.007Z,100616.97
2024-02-03T17:31:31.907Z,100621.25
2024-02-03T17:33:58.986Z,100619.97
2024-02-03T17:36:25.850Z,100614.56
2024-02-03T17:38:54.348Z,100611.16
2024-02-03T17:41:21.137Z,100616.09
2024-02-03T17:43:47.928Z,100623.19
2024-02-03T17:46:18.025Z,100618.00
2024-02-03T17:48:45.231Z,100606.19
2024-02-03T17:51:13.275Z,100603.72
2024-02-03T17:53:40.651Z,100606.91
2024-02-03T17:56:08.474Z,100616.97
2024-02-03T17:58:35.514Z,100607.03
2024-02-03T18:01:02.437Z,100596.50
2024-02-03T18:03:29.528Z,100596.53
2024-02-03T18:05:56.494Z,100585.56
2024-02-03T18:08:23.420Z,100581.53
2024-02-03T18:10:51.807Z,100581.31
2024-02-03T18:13:18.804Z,100578.38
2024-02-03T18:15:45.742Z,100582.09
2024-02-03T18:18:12.546Z,100585.13
2024-02-03T18:20:39.418Z,100584.25
2024-02-03T18:23:06.268Z,100584.59
2024-02-03T18:25:33.098Z,100594.56
2024-02-03T18:28:00.272Z,100587.63
2024-02-03T18:30:27.398Z,100578.06
2024-02-03T18:32:54.291Z,100587.81
2024-02-03T18:35:21.212Z,100586.47
2024-02-03T18:37:48.165Z,100584.97
2024-02-03T18:40:15.021Z,100580.06
2024-02-03T18:42:44.309Z,100577.56
2024-02-03T18:45:13.552Z,100578.56
2024-02-03T18:47:41.642Z,100583.28
2024-02-03T18:50:09.045Z,100588.19
2024-02-03T18:52:35.824Z,100589.69
2024-02-03T18:55:02.943Z,100586.28
2024-02-03T18:57:30.824Z,100588.94
2024-02-03T18:59:57.599Z,100581.22
2024-02-03T19:02:24.380Z,100584.25
2024-02-03T19:04:51.350Z,100585.59
2024-02-03T19:07:18.298Z,100586.78
2024-02-03T19:09:45.282Z,100587.25
2024-02-03T19:12:12.120Z,100587.63
2024-02-03T19:14:38.978Z,100591.41
2024-02-03T19:17:05.926Z,100598.44
2024-02-03T19:19:33.290Z,100599.47
2024-02-03T19:22:00.271Z,100593.25
2024-02-03T19:24:27.199Z,100587.38
2024-02-03T19:26:54.010Z,100585.22
2024-02-03T19:29:20.831Z,100581.69
2024-02-03T19:31:47.626Z,100580.00
2024-02-03T19:34:14.631Z,100594.41
2024-02-03T19:36:41.787Z,100585.88
2024-02-03T19:39:11.395Z,100595.59
2024-02-03T19:41:41.398Z,100595.91
2024-02-03T19:44:08.264Z,100607.84
2024-02-03T19:46:35.925Z,100602.81
2024-02-03T19:49:02.873Z,100600.16
2024-02-03T19:51:29.936Z,100606.84
2024-02-03T19:53:56.847Z,100612.22
2024-02-03T19:56:23.700Z,100590.78
2024-02-03T19:58:50.584Z,100589.78
2024-02-03T20:01:17.758Z,100582.41
2024-02-03T20:03:49.623Z,100581.41
2024-02-03T20:06:17.792Z,100580.75
2024-02-03T20:08:45.421Z,100585.97
2024-02-03T20:11:15.212Z,100573.41
2024-02-03T20:13:42.937Z,100588.81
2024-02-03T20:16:10.520Z,100578.75
2024-02-03T20:18:38.454Z,100573.22
2024-02-03T20:21:06.053Z,100579.81
2024-02-03T20:23:33.209Z,100573.88
2024-02-03T20:26:00.075Z,100569.03
2024-02-03T20:28:29.124Z,100576.41
2024-02-03T20:30:58.669Z,100580.13
2024-02-03T20:33:25.932Z,100580.44
2024-02-03T20:35:53.103Z,100596.25
2024-02-03T20:38:20.222Z,100594.84
2024-02-03T20:40:49.352Z,100601.94
2024-02-03T20:43:18.801Z,100605.47
2024-02-03T20:45:48.472Z,100596.25
2024-02-03T20:48:15.494Z,100598.59
2024-02-03T20:50:44.893Z,100586.19
2024-02-03T20:53:12.263Z,100593.22
2024-02-03T20:55:39.254Z,100593.22
2024-02-03T20:58:06.766Z,100602.09
2024-02-03T21:00:33.797Z,100603.78
2024-02-03T21:03:00.836Z,100596.25
2024-02-03T21:05:27.965Z,100608.16
2024-02-03T21:07:57.221Z,100599.94
2024-02-03T21:10:24.108Z,100609.50
2024-02-03T21:12:51.044Z,100599.59
2024-02-03T21:15:18.056Z,100600.59
2024-02-03T21:17:44.956Z,100610.66
2024-02-03T21:20:14.131Z,100604.75
2024-02-03T21:22:43.246Z,100609.31
2024-02-03T21:25:10.298Z,100607.63
2024-02-03T21:27:39.805Z,100609.31
2024-02-03T21:30:11.783Z,100603.78
2024-02-03T21:32:38.888Z,100591.88
2024-02-03T21:35:07.648Z,100592.22
2024-02-03T21:37:34.614Z,100594.41
2024-02-03T21:40:01.731Z,100592.56
2024-02-03T21:42:28.843Z,100582.00
2024-02-03T21:44:55.689Z,100576.47
2024-02-03T21:47:22.649Z,100570.44
2024-02-03T21:49:49.682Z,100570.59
2024-02-03T21:52:16.997Z,100566.06
2024-02-03T21:54:44.556Z,100560.53
2024-02-03T21:57:11.542Z,100565.72
2024-02-03T21:59:38.552Z,100556.34
2024-02-03T22:02:05.420Z,100567.75
2024-02-03T22:04:32.419Z,100562.56
2024-02-03T22:06:59.588Z,100575.13
2024-02-03T22:09:26.587Z,100582.50
2024-02-03T22:11:53.691Z,100587.19
2024-02-03T22:14:20.500Z,100590.22
2024-02-03T22:16:49.045Z,100591.22
2024-02-03T22:19:17.775Z,100607.97
2024-02-03T22:21:45.494Z,100604.47
2024-02-03T22:24:12.319Z,100600.59
2024-02-03T22:26:39.591Z,100593.56
2024-02-03T22:29:06.487Z,100589.53
2024-02-03T22:31:33.332Z,100602.28
2024-02-03T22:34:00.338Z,100593.22
2024-02-03T22:36:27.388Z,100579.97
2024-02-03T22:38:54.334Z,100594.22
2024-02-03T22:41:21.272Z,100581.16
2024-02-03T22:43:49.182Z,100578.28
2024-02-03T22:46:15.948Z,100582.44
2024-02-03T22:48:42.932Z,100586.63
2024-02-03T22:51:10.024Z,100582.16
2024-02-03T22:53:36.844Z,100572.25
2024-02-03T22:56:04.094Z,100571.94
2024-02-03T22:58:30.883Z,100562.38
2024-02-03T23:00:59.353Z,100558.19
2024-02-03T23:03:26.327Z,100551.50
2024-02-03T23:05:53.328Z,100554.84
2024-02-03T23:08:20.349Z,100556.03
2024-02-03T23:10:47.171Z,100548.00
2024-02-03T23:13:14.411Z,100536.91
2024-02-03T23:15:41.225Z,100544.66
2024-02-03T23:18:08.178Z,100537.28
2024-02-03T23:20:35.047Z,100541.31
2024-02-03T23:23:01.985Z,100550.38
2024-02-03T23:25:29.196Z,100545.66
2024-02-03T23:27:56.255Z,100555.38
2024-02-03T23:30:23.707Z,100539.31
2024-02-03T23:32:50.557Z,100545.66
2024-02-03T23:35:17.395Z,100540.31
2024-02-03T23:37:44.200Z,100547.00
2024-02-03T23:40:11.206Z,100533.28
2024-02-03T23:42:38.106Z,100539.63
2024-02-03T23:45:05.566Z,100543.00
2024-02-03T23:47:32.352Z,100540.31
2024-02-03T23:49:59.411Z,100549.38
2024-02-03T23:52:26.726Z,100536.97
2024-02-03T23:54:53.902Z,100534.59
2024-02-03T23:57:20.907Z,100527.25
2024-02-03T23:59:47.798Z,100526.22
